createdAt,value
2018-04-22T00:00:05.538Z,13.50
2018-04-22T00:01:04.810Z,13.50
2018-04-22T00:02:04.816Z,13.50
2018-04-22T00:03:04.812Z,13.50
2018-04-22T00:04:05.000Z,13.50
2018-04-22T00:05:04.803Z,13.40
2018-04-22T00:06:05.195Z,13.50
2018-04-22T00:07:04.906Z,13.40
2018-04-22T00:08:05.521Z,13.40
2018-04-22T00:09:04.677Z,13.40
2018-04-22T00:10:05.512Z,13.40
2018-04-22T00:11:05.240Z,13.40
2018-04-22T00:12:05.041Z,13.40
2018-04-22T00:13:05.040Z,13.30
2018-04-22T00:14:05.637Z,13.30
2018-04-22T00:15:05.386Z,13.30
2018-04-22T00:16:05.625Z,13.30
2018-04-22T00:17:04.800Z,13.30
2018-04-22T00:18:04.852Z,13.30
2018-04-22T00:19:04.982Z,13.30
2018-04-22T00:20:05.219Z,13.30
2018-04-22T00:21:05.573Z,13.30
2018-04-22T00:22:05.417Z,13.20
2018-04-22T00:23:04.691Z,13.20
2018-04-22T00:24:05.520Z,13.20
2018-04-22T00:25:05.601Z,13.20
2018-04-22T00:26:05.277Z,13.20
2018-04-22T00:27:04.768Z,13.20
2018-04-22T00:28:04.913Z,13.20
2018-04-22T00:29:04.691Z,13.20
2018-04-22T00:30:05.453Z,13.20
2018-04-22T00:31:05.225Z,13.20
2018-04-22T00:32:05.194Z,13.20
2018-04-22T00:33:04.933Z,13.20
2018-04-22T00:34:05.370Z,13.10
2018-04-22T00:35:05.478Z,13.10
2018-04-22T00:36:05.376Z,13.10
2018-04-22T00:37:04.953Z,13.10
2018-04-22T00:38:05.197Z,13.10
2018-04-22T00:39:04.910Z,13.10
2018-04-22T00:40:04.978Z,13.10
2018-04-22T00:41:05.521Z,13.10
2018-04-22T00:42:04.793Z,13.10
2018-04-22T00:43:04.637Z,13.10
2018-04-22T00:44:05.368Z,13.00
2018-04-22T00:45:05.126Z,13.00
2018-04-22T00:46:04.736Z,13.00
2018-04-22T00:47:05.668Z,13.00
2018-04-22T00:48:05.583Z,13.00
2018-04-22T00:49:04.786Z,13.00
2018-04-22T00:50:05.641Z,13.00
2018-04-22T00:51:04.744Z,12.90
2018-04-22T00:52:04.665Z,12.90
2018-04-22T00:53:05.229Z,12.90
2018-04-22T00:54:04.851Z,12.90
2018-04-22T00:55:04.737Z,12.90
2018-04-22T00:56:05.429Z,12.90
2018-04-22T00:57:05.374Z,12.80
2018-04-22T00:58:05.007Z,12.80
2018-04-22T00:59:05.137Z,12.80
2018-04-22T01:00:05.430Z,12.80
2018-04-22T01:01:05.368Z,12.80
2018-04-22T01:02:05.449Z,12.80
2018-04-22T01:03:05.057Z,12.80
2018-04-22T01:04:04.843Z,12.80
2018-04-22T01:05:05.134Z,12.80
2018-04-22T01:06:05.630Z,12.80
2018-04-22T01:07:05.160Z,12.80
2018-04-22T01:08:05.165Z,12.70
2018-04-22T01:09:05.414Z,12.70
2018-04-22T01:10:05.189Z,12.70
2018-04-22T01:11:05.193Z,12.70
2018-04-22T01:12:05.387Z,12.70
2018-04-22T01:13:05.146Z,12.60
2018-04-22T01:14:04.975Z,12.60
2018-04-22T01:15:05.588Z,12.60
2018-04-22T01:16:05.450Z,12.60
2018-04-22T01:17:05.610Z,12.60
2018-04-22T01:18:05.569Z,12.60
2018-04-22T01:19:05.552Z,12.60
2018-04-22T01:20:05.663Z,12.60
2018-04-22T01:21:05.137Z,12.50
2018-04-22T01:22:05.253Z,12.60
2018-04-22T01:23:05.330Z,12.50
2018-04-22T01:24:04.839Z,12.50
2018-04-22T01:25:04.953Z,12.50
2018-04-22T01:26:05.048Z,12.50
2018-04-22T01:27:04.959Z,12.50
2018-04-22T01:28:05.189Z,12.50
2018-04-22T01:29:05.120Z,12.50
2018-04-22T01:30:05.387Z,12.50
2018-04-22T01:31:05.169Z,12.40
2018-04-22T01:32:04.900Z,12.40
2018-04-22T01:33:05.438Z,12.40
2018-04-22T01:34:05.215Z,12.40
2018-04-22T01:35:05.460Z,12.40
2018-04-22T01:36:05.153Z,12.40
2018-04-22T01:37:04.610Z,12.30
2018-04-22T01:38:05.414Z,12.30
2018-04-22T01:39:05.227Z,12.30
2018-04-22T01:40:05.385Z,12.30
2018-04-22T01:41:05.528Z,12.30
2018-04-22T01:42:04.677Z,12.30
2018-04-22T01:43:05.695Z,12.30
2018-04-22T01:44:05.388Z,12.30
2018-04-22T01:45:04.964Z,12.30
2018-04-22T01:46:04.713Z,12.30
2018-04-22T01:47:04.712Z,12.30
2018-04-22T01:48:05.680Z,12.30
2018-04-22T01:49:04.978Z,12.30
2018-04-22T01:50:04.853Z,12.20
2018-04-22T01:51:04.654Z,12.20
2018-04-22T01:52:04.782Z,12.20
2018-04-22T01:53:05.163Z,12.20
2018-04-22T01:54:05.047Z,12.20
2018-04-22T01:55:04.899Z,12.20
2018-04-22T01:56:04.890Z,12.20
2018-04-22T01:57:04.953Z,12.20
2018-04-22T01:58:05.385Z,12.20
2018-04-22T01:59:05.298Z,12.20
2018-04-22T02:00:04.951Z,12.20
2018-04-22T02:01:05.421Z,12.20
2018-04-22T02:02:05.279Z,12.20
2018-04-22T02:03:04.880Z,12.20
2018-04-22T02:04:05.688Z,12.20
2018-04-22T02:05:05.073Z,12.10
2018-04-22T02:06:05.360Z,12.10
2018-04-22T02:07:04.779Z,12.10
2018-04-22T02:08:05.141Z,12.10
2018-04-22T02:09:05.557Z,12.10
2018-04-22T02:10:05.607Z,12.10
2018-04-22T02:11:04.854Z,12.10
2018-04-22T02:12:05.587Z,12.00
2018-04-22T02:13:04.804Z,12.00
2018-04-22T02:14:05.497Z,12.00
2018-04-22T02:15:05.440Z,12.00
2018-04-22T02:16:04.759Z,11.90
2018-04-22T02:17:05.177Z,11.90
2018-04-22T02:18:04.964Z,11.90
2018-04-22T02:19:05.446Z,11.90
2018-04-22T02:20:05.650Z,11.90
2018-04-22T02:21:05.263Z,11.90
2018-04-22T02:22:05.420Z,11.90
2018-04-22T02:23:05.338Z,11.90
2018-04-22T02:24:04.943Z,11.90
2018-04-22T02:25:05.356Z,11.90
2018-04-22T02:26:05.221Z,11.90
2018-04-22T02:27:05.092Z,11.90
2018-04-22T02:28:04.837Z,11.90
2018-04-22T02:29:05.376Z,11.90
2018-04-22T02:30:05.646Z,11.90
2018-04-22T02:31:05.176Z,11.90
2018-04-22T02:32:05.082Z,11.80
2018-04-22T02:33:04.870Z,11.90
2018-04-22T02:34:05.465Z,11.80
2018-04-22T02:35:05.486Z,11.80
2018-04-22T02:36:05.596Z,11.80
2018-04-22T02:37:05.476Z,11.80
2018-04-22T02:38:05.109Z,11.80
2018-04-22T02:39:04.791Z,11.80
2018-04-22T02:40:05.563Z,11.80
2018-04-22T02:41:05.626Z,11.80
2018-04-22T02:42:05.284Z,11.70
2018-04-22T02:43:05.087Z,11.70
2018-04-22T02:44:05.984Z,11.70
2018-04-22T02:45:04.793Z,11.70
2018-04-22T02:46:04.703Z,11.70
2018-04-22T02:47:05.198Z,11.70
2018-04-22T02:48:05.034Z,11.70
2018-04-22T02:49:05.026Z,11.60
2018-04-22T02:50:04.816Z,11.60
2018-04-22T02:51:04.624Z,11.60
2018-04-22T02:52:04.836Z,11.60
2018-04-22T02:53:05.254Z,11.60
2018-04-22T02:54:04.984Z,11.60
2018-04-22T02:55:04.880Z,11.60
2018-04-22T02:56:04.846Z,11.60
2018-04-22T02:57:05.647Z,11.60
2018-04-22T02:58:05.249Z,11.60
2018-04-22T02:59:05.085Z,11.60
2018-04-22T03:00:05.065Z,11.60
2018-04-22T03:01:04.980Z,11.60
2018-04-22T03:02:05.175Z,11.60
2018-04-22T03:03:05.285Z,11.60
2018-04-22T03:04:04.827Z,11.60
2018-04-22T03:05:04.885Z,11.50
2018-04-22T03:06:04.849Z,11.50
2018-04-22T03:07:05.487Z,11.50
2018-04-22T03:08:05.354Z,11.50
2018-04-22T03:09:05.130Z,11.50
2018-04-22T03:10:05.610Z,11.50
2018-04-22T03:11:05.449Z,11.50
2018-04-22T03:12:04.553Z,11.50
2018-04-22T03:13:05.107Z,11.50
2018-04-22T03:14:04.612Z,11.40
2018-04-22T03:15:05.402Z,11.40
2018-04-22T03:16:05.418Z,11.40
2018-04-22T03:17:05.421Z,11.40
2018-04-22T03:18:05.138Z,11.40
2018-04-22T03:19:04.840Z,11.40
2018-04-22T03:20:05.000Z,11.30
2018-04-22T03:21:04.665Z,11.30
2018-04-22T03:22:04.688Z,11.30
2018-04-22T03:23:05.361Z,11.30
2018-04-22T03:24:05.239Z,11.30
2018-04-22T03:25:04.971Z,11.30
2018-04-22T03:26:05.034Z,11.30
2018-04-22T03:27:05.108Z,11.20
2018-04-22T03:28:04.763Z,11.20
2018-04-22T03:29:05.075Z,11.20
2018-04-22T03:30:04.759Z,11.20
2018-04-22T03:31:04.827Z,11.10
2018-04-22T03:32:05.979Z,11.10
2018-04-22T03:33:05.639Z,11.10
2018-04-22T03:34:05.430Z,11.10
2018-04-22T03:35:05.600Z,11.10
2018-04-22T03:36:05.579Z,11.10
2018-04-22T03:37:05.242Z,11.10
2018-04-22T03:38:05.009Z,11.10
2018-04-22T03:39:05.148Z,11.10
2018-04-22T03:40:05.122Z,11.10
2018-04-22T03:41:04.852Z,11.10
2018-04-22T03:42:04.998Z,11.10
2018-04-22T03:43:05.985Z,11.10
2018-04-22T03:44:05.429Z,11.10
2018-04-22T03:45:05.249Z,11.10
2018-04-22T03:46:05.024Z,11.10
2018-04-22T03:47:05.533Z,11.10
2018-04-22T03:48:05.467Z,11.10
2018-04-22T03:49:04.963Z,11.10
2018-04-22T03:50:04.771Z,11.10
2018-04-22T03:51:05.410Z,11.10
2018-04-22T03:52:05.092Z,11.10
2018-04-22T03:53:05.536Z,11.10
2018-04-22T03:54:04.966Z,11.10
2018-04-22T03:55:05.700Z,11.10
2018-04-22T03:56:05.314Z,11.10
2018-04-22T03:57:05.182Z,11.10
2018-04-22T03:58:05.118Z,11.00
2018-04-22T03:59:05.189Z,11.00
2018-04-22T04:00:05.061Z,11.00
2018-04-22T04:01:05.372Z,11.00
2018-04-22T04:02:05.538Z,11.00
2018-04-22T04:03:05.580Z,11.00
2018-04-22T04:04:04.831Z,11.00
2018-04-22T04:05:05.014Z,11.00
2018-04-22T04:06:05.595Z,11.00
2018-04-22T04:07:05.640Z,11.00
2018-04-22T04:08:04.682Z,11.00
2018-04-22T04:09:05.128Z,11.00
2018-04-22T04:10:05.750Z,10.90
2018-04-22T04:11:05.442Z,10.90
2018-04-22T04:12:05.448Z,10.90
2018-04-22T04:13:05.197Z,10.90
2018-04-22T04:14:05.481Z,10.90
2018-04-22T04:15:04.854Z,10.90
2018-04-22T04:16:05.616Z,10.90
2018-04-22T04:17:06.792Z,10.80
2018-04-22T04:18:04.821Z,10.80
2018-04-22T04:19:05.275Z,10.80
2018-04-22T04:20:05.051Z,10.80
2018-04-22T04:21:04.870Z,10.80
2018-04-22T04:22:05.735Z,10.80
2018-04-22T04:23:05.306Z,10.80
2018-04-22T04:24:04.996Z,10.80
2018-04-22T04:25:06.260Z,10.80
2018-04-22T04:26:05.049Z,10.70
2018-04-22T04:27:04.951Z,10.70
2018-04-22T04:28:04.991Z,10.70
2018-04-22T04:29:05.049Z,10.70
2018-04-22T04:30:05.024Z,10.70
2018-04-22T04:31:04.859Z,10.70
2018-04-22T04:32:05.168Z,10.70
2018-04-22T04:33:05.253Z,10.60
2018-04-22T04:34:05.112Z,10.60
2018-04-22T04:35:05.238Z,10.70
2018-04-22T04:36:05.404Z,10.60
2018-04-22T04:37:05.659Z,10.60
2018-04-22T04:38:05.398Z,10.60
2018-04-22T04:39:05.304Z,10.70
2018-04-22T04:40:05.275Z,10.60
2018-04-22T04:41:05.070Z,10.70
2018-04-22T04:42:05.496Z,10.70
2018-04-22T04:43:05.356Z,10.70
2018-04-22T04:44:05.019Z,10.70
2018-04-22T04:45:05.516Z,10.70
2018-04-22T04:46:05.656Z,10.80
2018-04-22T04:47:05.064Z,10.80
2018-04-22T04:48:05.532Z,10.90
2018-04-22T04:49:04.955Z,10.90
2018-04-22T04:50:05.179Z,11.00
2018-04-22T04:51:05.285Z,11.10
2018-04-22T04:52:06.774Z,11.20
2018-04-22T04:53:05.405Z,11.30
2018-04-22T04:54:04.903Z,11.50
2018-04-22T04:55:05.357Z,11.60
2018-04-22T04:56:04.971Z,11.70
2018-04-22T04:57:04.901Z,11.80
2018-04-22T04:58:04.843Z,11.90
2018-04-22T04:59:05.471Z,12.00
2018-04-22T05:00:04.736Z,12.10
2018-04-22T05:01:05.718Z,12.20
2018-04-22T05:02:05.154Z,12.30
2018-04-22T05:03:05.474Z,12.50
2018-04-22T05:04:05.347Z,12.60
2018-04-22T05:05:04.895Z,12.70
2018-04-22T05:06:05.094Z,12.70
2018-04-22T05:07:04.805Z,12.90
2018-04-22T05:08:05.539Z,13.00
2018-04-22T05:09:05.408Z,13.10
2018-04-22T05:10:05.675Z,13.20
2018-04-22T05:11:05.698Z,13.30
2018-04-22T05:12:04.767Z,13.40
2018-04-22T05:13:05.010Z,13.60
2018-04-22T05:14:04.763Z,13.70
2018-04-22T05:15:05.546Z,13.80
2018-04-22T05:16:05.585Z,13.90
2018-04-22T05:17:05.986Z,14.00
2018-04-22T05:18:04.800Z,14.20
2018-04-22T05:19:04.776Z,14.30
2018-04-22T05:20:05.061Z,14.40
2018-04-22T05:21:05.066Z,14.50
2018-04-22T05:22:04.989Z,14.60
2018-04-22T05:23:04.880Z,14.70
2018-04-22T05:24:05.099Z,14.80
2018-04-22T05:25:05.489Z,14.90
2018-04-22T05:26:05.173Z,15.00
2018-04-22T05:27:04.781Z,15.10
2018-04-22T05:28:04.839Z,15.20
2018-04-22T05:29:04.783Z,15.30
2018-04-22T05:30:05.150Z,15.50
2018-04-22T05:31:04.924Z,15.50
2018-04-22T05:32:05.107Z,15.60
2018-04-22T05:33:04.861Z,15.70
2018-04-22T05:34:06.388Z,15.90
2018-04-22T05:35:05.048Z,16.00
2018-04-22T05:36:05.253Z,16.10
2018-04-22T05:37:05.182Z,16.20
2018-04-22T05:38:05.761Z,16.30
2018-04-22T05:39:05.646Z,16.40
2018-04-22T05:40:05.002Z,16.50
2018-04-22T05:41:05.301Z,16.60
2018-04-22T05:42:05.298Z,16.70
2018-04-22T05:43:05.230Z,16.80
2018-04-22T05:44:05.306Z,16.90
2018-04-22T05:45:05.199Z,17.00
2018-04-22T05:46:05.119Z,17.10
2018-04-22T05:47:05.000Z,17.10
2018-04-22T05:48:05.286Z,17.20
2018-04-22T05:49:05.164Z,17.30
2018-04-22T05:50:04.986Z,17.40
2018-04-22T05:51:04.766Z,17.40
2018-04-22T05:52:04.830Z,17.50
2018-04-22T05:53:04.923Z,17.50
2018-04-22T05:54:04.764Z,17.60
2018-04-22T05:55:05.341Z,17.70
2018-04-22T05:56:05.000Z,17.70
2018-04-22T05:57:05.174Z,17.80
2018-04-22T05:58:05.403Z,17.80
2018-04-22T05:59:05.402Z,17.90
2018-04-22T06:00:05.839Z,17.90
2018-04-22T06:01:05.077Z,18.00
2018-04-22T06:02:04.767Z,18.00
2018-04-22T06:03:04.654Z,18.10
2018-04-22T06:04:04.825Z,18.20
2018-04-22T06:05:04.869Z,18.20
2018-04-22T06:06:05.237Z,18.30
2018-04-22T06:07:04.989Z,18.40
2018-04-22T06:08:05.546Z,18.40
2018-04-22T06:09:05.685Z,18.50
2018-04-22T06:10:05.588Z,18.50
2018-04-22T06:11:05.355Z,18.60
2018-04-22T06:12:05.157Z,18.70
2018-04-22T06:13:05.016Z,18.70
2018-04-22T06:14:05.147Z,18.80
2018-04-22T06:15:05.044Z,18.80
2018-04-22T06:16:05.698Z,18.90
2018-04-22T06:17:05.213Z,18.90
2018-04-22T06:18:05.023Z,19.00
2018-04-22T06:19:05.060Z,19.10
2018-04-22T06:20:05.470Z,19.10
2018-04-22T06:21:04.757Z,19.20
2018-04-22T06:22:05.663Z,19.20
2018-04-22T06:23:05.559Z,19.20
2018-04-22T06:24:05.638Z,19.30
2018-04-22T06:25:05.431Z,19.40
2018-04-22T06:26:05.606Z,19.50
2018-04-22T06:27:04.694Z,19.50
2018-04-22T06:28:04.691Z,19.50
2018-04-22T06:29:04.905Z,19.60
2018-04-22T06:30:05.249Z,19.60
2018-04-22T06:31:09.927Z,19.60
2018-04-22T06:32:05.278Z,19.70
2018-04-22T06:33:05.325Z,19.70
2018-04-22T06:34:05.088Z,19.80
2018-04-22T06:35:05.375Z,19.80
2018-04-22T06:36:05.319Z,19.90
2018-04-22T06:37:05.308Z,20.00
2018-04-22T06:38:05.149Z,20.00
2018-04-22T06:39:05.080Z,20.10
2018-04-22T06:40:05.110Z,20.10
2018-04-22T06:41:05.450Z,20.20
2018-04-22T06:42:05.210Z,20.20
2018-04-22T06:43:05.102Z,20.30
2018-04-22T06:44:05.306Z,20.30
2018-04-22T06:45:04.890Z,20.30
2018-04-22T06:46:05.140Z,20.40
2018-04-22T06:47:05.263Z,20.40
2018-04-22T06:48:05.281Z,20.50
2018-04-22T06:49:05.495Z,20.50
2018-04-22T06:50:04.957Z,20.60
2018-04-22T06:51:05.343Z,20.60
2018-04-22T06:52:05.502Z,20.60
2018-04-22T06:53:05.350Z,20.70
2018-04-22T06:54:04.965Z,20.70
2018-04-22T06:55:04.726Z,20.70
2018-04-22T06:56:05.198Z,20.70
2018-04-22T06:57:05.439Z,20.80
2018-04-22T06:58:05.619Z,20.80
2018-04-22T06:59:04.984Z,20.90
2018-04-22T07:00:05.303Z,20.90
2018-04-22T07:01:05.205Z,21.00
2018-04-22T07:02:04.899Z,21.00
2018-04-22T07:03:05.886Z,21.10
2018-04-22T07:04:04.905Z,21.10
2018-04-22T07:05:05.013Z,21.10
2018-04-22T07:06:05.040Z,21.20
2018-04-22T07:07:05.583Z,21.20
2018-04-22T07:08:05.443Z,21.30
2018-04-22T07:09:05.532Z,21.30
2018-04-22T07:10:05.372Z,21.30
2018-04-22T07:11:05.230Z,21.40
2018-04-22T07:12:05.104Z,21.40
2018-04-22T07:13:04.720Z,21.40
2018-04-22T07:14:05.111Z,21.40
2018-04-22T07:15:05.307Z,21.40
2018-04-22T07:16:05.330Z,21.40
2018-04-22T07:17:05.115Z,21.50
2018-04-22T07:18:05.230Z,21.50
2018-04-22T07:19:05.352Z,21.50
2018-04-22T07:20:05.325Z,21.50
2018-04-22T07:21:05.318Z,21.50
2018-04-22T07:22:04.941Z,21.50
2018-04-22T07:23:05.242Z,21.50
2018-04-22T07:24:05.788Z,21.60
2018-04-22T07:25:04.998Z,21.60
2018-04-22T07:26:04.901Z,21.70
2018-04-22T07:27:04.851Z,21.70
2018-04-22T07:28:05.324Z,21.80
2018-04-22T07:29:05.489Z,21.80
2018-04-22T07:30:05.717Z,21.90
2018-04-22T07:31:05.477Z,21.90
2018-04-22T07:32:05.397Z,21.90
2018-04-22T07:33:05.370Z,22.00
2018-04-22T07:34:05.310Z,22.00
2018-04-22T07:35:04.806Z,22.10
2018-04-22T07:36:05.479Z,22.10
2018-04-22T07:37:05.653Z,22.10
2018-04-22T07:38:05.474Z,22.20
2018-04-22T07:39:05.385Z,22.20
2018-04-22T07:40:05.201Z,22.20
2018-04-22T07:41:05.613Z,22.20
2018-04-22T07:42:04.934Z,22.30
2018-04-22T07:43:05.205Z,22.30
2018-04-22T07:44:04.692Z,22.40
2018-04-22T07:45:04.988Z,22.40
2018-04-22T07:46:05.165Z,22.40
2018-04-22T07:47:04.999Z,22.40
2018-04-22T07:48:04.839Z,22.50
2018-04-22T07:49:05.138Z,22.50
2018-04-22T07:50:05.114Z,22.50
2018-04-22T07:51:05.047Z,22.60
2018-04-22T07:52:05.472Z,22.60
2018-04-22T07:53:06.292Z,22.60
2018-04-22T07:54:05.394Z,22.60
2018-04-22T07:55:04.799Z,22.70
2018-04-22T07:56:05.091Z,22.70
2018-04-22T07:57:05.193Z,22.70
2018-04-22T07:58:05.154Z,22.80
2018-04-22T07:59:05.602Z,22.80
2018-04-22T08:00:05.544Z,22.80
2018-04-22T08:01:05.596Z,22.90
2018-04-22T08:02:05.624Z,22.90
2018-04-22T08:03:05.690Z,23.00
2018-04-22T08:04:05.267Z,23.00
2018-04-22T08:05:05.385Z,23.10
2018-04-22T08:06:05.447Z,23.10
2018-04-22T08:07:05.300Z,23.10
2018-04-22T08:08:05.147Z,23.20
2018-04-22T08:09:05.406Z,23.20
2018-04-22T08:10:05.008Z,23.20
2018-04-22T08:11:05.007Z,23.20
2018-04-22T08:12:05.076Z,23.30
2018-04-22T08:13:05.361Z,23.30
2018-04-22T08:14:05.075Z,23.30
2018-04-22T08:15:04.891Z,23.40
2018-04-22T08:16:05.527Z,23.40
2018-04-22T08:17:05.459Z,23.40
2018-04-22T08:18:05.343Z,23.50
2018-04-22T08:19:05.057Z,23.50
2018-04-22T08:20:04.949Z,23.60
2018-04-22T08:21:05.188Z,23.60
2018-04-22T08:22:05.053Z,23.60
2018-04-22T08:23:05.363Z,23.70
2018-04-22T08:24:05.280Z,23.70
2018-04-22T08:25:05.380Z,23.70
2018-04-22T08:26:05.233Z,23.70
2018-04-22T08:27:05.651Z,23.80
2018-04-22T08:28:05.579Z,23.80
2018-04-22T08:29:04.817Z,23.80
2018-04-22T08:30:04.660Z,23.90
2018-04-22T08:31:05.105Z,23.90
2018-04-22T08:32:05.151Z,24.00
2018-04-22T08:33:05.538Z,24.00
2018-04-22T08:34:05.061Z,24.00
2018-04-22T08:35:05.207Z,24.00
2018-04-22T08:36:05.677Z,24.10
2018-04-22T08:37:05.553Z,24.10
2018-04-22T08:38:05.258Z,24.10
2018-04-22T08:39:05.454Z,24.20
2018-04-22T08:40:05.568Z,24.20
2018-04-22T08:41:06.216Z,24.20
2018-04-22T08:42:05.176Z,24.30
2018-04-22T08:43:05.001Z,24.30
2018-04-22T08:44:04.913Z,24.30
2018-04-22T08:45:05.200Z,24.30
2018-04-22T08:46:04.823Z,24.40
2018-04-22T08:47:05.062Z,24.40
2018-04-22T08:48:04.798Z,24.40
2018-04-22T08:49:04.894Z,24.50
2018-04-22T08:50:04.904Z,24.50
2018-04-22T08:51:05.125Z,24.50
2018-04-22T08:52:05.079Z,24.50
2018-04-22T08:53:05.248Z,24.60
2018-04-22T08:54:05.005Z,24.60
2018-04-22T08:55:05.336Z,24.60
2018-04-22T08:56:05.692Z,24.60
2018-04-22T08:57:05.649Z,24.70
2018-04-22T08:58:04.766Z,24.80
2018-04-22T08:59:05.148Z,24.80
2018-04-22T09:00:05.618Z,24.80
2018-04-22T09:01:05.301Z,24.90
2018-04-22T09:02:04.712Z,24.90
2018-04-22T09:03:05.492Z,24.90
2018-04-22T09:04:05.189Z,25.00
2018-04-22T09:05:04.938Z,25.00
2018-04-22T09:06:05.466Z,25.00
2018-04-22T09:07:05.531Z,25.00
2018-04-22T09:08:05.554Z,25.10
2018-04-22T09:09:04.679Z,25.10
2018-04-22T09:10:04.837Z,25.10
2018-04-22T09:11:05.558Z,25.10
2018-04-22T09:12:05.271Z,25.10
2018-04-22T09:13:05.105Z,25.20
2018-04-22T09:14:05.418Z,25.20
2018-04-22T09:15:04.611Z,25.20
2018-04-22T09:16:05.166Z,25.30
2018-04-22T09:17:04.812Z,25.30
2018-04-22T09:18:05.361Z,25.30
2018-04-22T09:19:04.929Z,25.30
2018-04-22T09:20:05.023Z,25.40
2018-04-22T09:21:04.715Z,25.40
2018-04-22T09:22:05.000Z,25.30
2018-04-22T09:23:05.185Z,25.30
2018-04-22T09:24:05.010Z,25.30
2018-04-22T09:25:04.811Z,25.30
2018-04-22T09:26:05.799Z,25.30
2018-04-22T09:27:05.093Z,25.30
2018-04-22T09:28:05.587Z,25.30
2018-04-22T09:29:04.789Z,25.30
2018-04-22T09:30:05.297Z,25.30
2018-04-22T09:31:05.601Z,25.30
2018-04-22T09:32:04.992Z,25.30
2018-04-22T09:33:04.886Z,25.30
2018-04-22T09:34:05.386Z,25.30
2018-04-22T09:35:05.329Z,25.30
2018-04-22T09:36:05.186Z,25.30
2018-04-22T09:37:05.589Z,25.40
2018-04-22T09:38:04.881Z,25.40
2018-04-22T09:39:05.307Z,25.40
2018-04-22T09:40:04.924Z,25.50
2018-04-22T09:41:05.081Z,25.50
2018-04-22T09:42:05.661Z,25.50
2018-04-22T09:43:05.517Z,25.50
2018-04-22T09:44:04.858Z,25.50
2018-04-22T09:45:05.103Z,25.50
2018-04-22T09:46:05.097Z,25.50
2018-04-22T09:47:05.578Z,25.50
2018-04-22T09:48:04.936Z,25.50
2018-04-22T09:49:05.408Z,25.50
2018-04-22T09:50:05.032Z,25.50
2018-04-22T09:51:04.893Z,25.50
2018-04-22T09:52:04.828Z,25.60
2018-04-22T09:53:05.312Z,25.50
2018-04-22T09:54:05.263Z,25.50
2018-04-22T09:55:05.534Z,25.50
2018-04-22T09:56:05.070Z,25.50
2018-04-22T09:57:05.176Z,25.50
2018-04-22T09:58:05.010Z,25.60
2018-04-22T09:59:04.882Z,25.60
2018-04-22T10:00:05.552Z,25.60
2018-04-22T10:01:05.629Z,25.60
2018-04-22T10:02:05.413Z,25.60
2018-04-22T10:03:04.965Z,25.60
2018-04-22T10:04:05.018Z,25.70
2018-04-22T10:05:05.477Z,25.70
2018-04-22T10:06:06.223Z,25.70
2018-04-22T10:07:05.044Z,25.80
2018-04-22T10:08:04.834Z,25.80
2018-04-22T10:09:04.986Z,25.90
2018-04-22T10:10:05.463Z,25.90
2018-04-22T10:11:05.241Z,26.00
2018-04-22T10:12:05.339Z,26.00
2018-04-22T10:13:05.207Z,26.00
2018-04-22T10:14:04.955Z,26.00
2018-04-22T10:15:05.108Z,26.10
2018-04-22T10:16:05.450Z,26.10
2018-04-22T10:17:04.876Z,26.10
2018-04-22T10:18:05.246Z,26.10
2018-04-22T10:19:04.895Z,26.20
2018-04-22T10:20:04.894Z,26.20
2018-04-22T10:21:05.095Z,26.30
2018-04-22T10:22:05.093Z,26.30
2018-04-22T10:23:05.205Z,26.30
2018-04-22T10:24:05.358Z,26.20
2018-04-22T10:25:05.331Z,26.20
2018-04-22T10:26:05.281Z,26.20
2018-04-22T10:27:05.468Z,26.10
2018-04-22T10:28:05.539Z,26.10
2018-04-22T10:29:05.331Z,26.10
2018-04-22T10:30:05.249Z,26.10
2018-04-22T10:31:05.311Z,26.10
2018-04-22T10:32:05.539Z,26.10
2018-04-22T10:33:05.334Z,26.10
2018-04-22T10:34:05.426Z,26.10
2018-04-22T10:35:04.969Z,26.20
2018-04-22T10:36:05.142Z,26.20
2018-04-22T10:37:05.200Z,26.20
2018-04-22T10:38:05.412Z,26.20
2018-04-22T10:39:05.445Z,26.30
2018-04-22T10:40:05.649Z,26.30
2018-04-22T10:41:05.361Z,26.30
2018-04-22T10:42:05.520Z,26.30
2018-04-22T10:43:04.834Z,26.40
2018-04-22T10:44:04.978Z,26.40
2018-04-22T10:45:05.361Z,26.40
2018-04-22T10:46:05.732Z,26.50
2018-04-22T10:47:05.309Z,26.50
2018-04-22T10:48:04.747Z,26.50
2018-04-22T10:49:05.033Z,26.60
2018-04-22T10:50:05.292Z,26.60
2018-04-22T10:51:05.429Z,26.60
2018-04-22T10:52:05.039Z,26.70
2018-04-22T10:53:04.739Z,26.70
2018-04-22T10:54:04.799Z,26.70
2018-04-22T10:55:04.898Z,26.70
2018-04-22T10:56:04.649Z,26.70
2018-04-22T10:57:05.640Z,26.80
2018-04-22T10:58:05.648Z,26.80
2018-04-22T10:59:04.928Z,26.80
2018-04-22T11:00:05.370Z,26.80
2018-04-22T11:01:05.108Z,26.80
2018-04-22T11:02:05.262Z,26.90
2018-04-22T11:03:05.133Z,26.90
2018-04-22T11:04:05.122Z,26.90
2018-04-22T11:05:05.126Z,26.90
2018-04-22T11:06:04.757Z,26.90
2018-04-22T11:07:04.921Z,26.90
2018-04-22T11:08:05.049Z,26.90
2018-04-22T11:09:05.117Z,26.90
2018-04-22T11:10:05.323Z,26.80
2018-04-22T11:11:05.500Z,26.80
2018-04-22T11:12:04.683Z,26.80
2018-04-22T11:13:05.502Z,26.90
2018-04-22T11:14:05.349Z,26.90
2018-04-22T11:15:05.739Z,26.90
2018-04-22T11:16:04.835Z,26.90
2018-04-22T11:17:05.138Z,27.00
2018-04-22T11:18:04.976Z,27.00
2018-04-22T11:19:04.713Z,27.00
2018-04-22T11:20:04.790Z,27.00
2018-04-22T11:21:04.828Z,27.10
2018-04-22T11:22:05.715Z,27.00
2018-04-22T11:23:04.811Z,27.10
2018-04-22T11:24:05.258Z,27.10
2018-04-22T11:25:05.478Z,27.10
2018-04-22T11:26:05.499Z,27.10
2018-04-22T11:27:05.253Z,27.10
2018-04-22T11:28:04.972Z,27.10
2018-04-22T11:29:05.171Z,27.20
2018-04-22T11:30:05.681Z,27.20
2018-04-22T11:31:05.055Z,27.20
2018-04-22T11:32:04.872Z,27.20
2018-04-22T11:33:04.834Z,27.20
2018-04-22T11:34:05.160Z,27.30
2018-04-22T11:35:05.388Z,27.30
2018-04-22T11:36:05.565Z,27.30
2018-04-22T11:37:05.301Z,27.30
2018-04-22T11:38:05.438Z,27.30
2018-04-22T11:39:05.201Z,27.30
2018-04-22T11:40:04.957Z,27.30
2018-04-22T11:41:05.337Z,27.40
2018-04-22T11:42:05.161Z,27.40
2018-04-22T11:43:05.250Z,27.40
2018-04-22T11:44:05.475Z,27.40
2018-04-22T11:45:10.544Z,27.40
2018-04-22T11:46:05.615Z,27.50
2018-04-22T11:47:05.706Z,27.50
2018-04-22T11:48:05.484Z,27.50
2018-04-22T11:49:05.192Z,27.50
2018-04-22T11:50:05.037Z,27.50
2018-04-22T11:51:05.195Z,27.60
2018-04-22T11:52:05.434Z,27.60
2018-04-22T11:53:05.608Z,27.60
2018-04-22T11:54:05.363Z,27.70
2018-04-22T11:55:05.481Z,27.70
2018-04-22T11:56:05.485Z,27.70
2018-04-22T11:57:04.767Z,27.70
2018-04-22T11:58:05.397Z,27.70
2018-04-22T11:59:05.389Z,27.80
2018-04-22T12:00:05.201Z,27.80
2018-04-22T12:01:05.310Z,27.80
2018-04-22T12:02:06.088Z,27.90
2018-04-22T12:03:04.802Z,27.90
2018-04-22T12:04:04.960Z,27.90
2018-04-22T12:05:05.619Z,27.90
2018-04-22T12:06:05.202Z,27.90
2018-04-22T12:07:05.687Z,27.90
2018-04-22T12:08:04.778Z,27.90
2018-04-22T12:09:05.150Z,28.00
2018-04-22T12:10:04.859Z,28.00
2018-04-22T12:11:05.094Z,28.00
2018-04-22T12:12:05.576Z,28.00
2018-04-22T12:13:05.030Z,28.00
2018-04-22T12:14:04.716Z,28.00
2018-04-22T12:15:05.227Z,28.00
2018-04-22T12:16:05.220Z,28.00
2018-04-22T12:17:04.919Z,28.00
2018-04-22T12:18:05.476Z,28.00
2018-04-22T12:19:05.107Z,28.10
2018-04-22T12:20:05.284Z,28.10
2018-04-22T12:21:05.529Z,28.10
2018-04-22T12:22:04.781Z,28.00
2018-04-22T12:23:05.607Z,28.00
2018-04-22T12:24:05.363Z,28.00
2018-04-22T12:25:05.394Z,28.10
2018-04-22T12:26:05.635Z,28.10
2018-04-22T12:27:04.785Z,28.10
2018-04-22T12:28:05.474Z,28.10
2018-04-22T12:29:05.205Z,28.10
2018-04-22T12:30:05.209Z,28.10
2018-04-22T12:31:05.653Z,28.10
2018-04-22T12:32:05.530Z,28.10
2018-04-22T12:33:05.662Z,28.10
2018-04-22T12:34:05.656Z,28.10
2018-04-22T12:35:05.380Z,28.10
2018-04-22T12:36:05.028Z,28.10
2018-04-22T12:37:04.967Z,28.10
2018-04-22T12:38:05.455Z,28.10
2018-04-22T12:39:05.191Z,28.00
2018-04-22T12:40:05.205Z,28.00
2018-04-22T12:41:05.306Z,28.00
2018-04-22T12:42:05.503Z,28.00
2018-04-22T12:43:05.251Z,27.90
2018-04-22T12:44:05.041Z,27.90
2018-04-22T12:45:05.637Z,27.90
2018-04-22T12:46:05.475Z,27.90
2018-04-22T12:47:04.961Z,27.90
2018-04-22T12:48:05.349Z,27.90
2018-04-22T12:49:05.579Z,27.90
2018-04-22T12:50:05.606Z,27.90
2018-04-22T12:51:05.199Z,27.90
2018-04-22T12:52:05.316Z,27.90